Niuzhuang, China
Current Conditions -  °F | °C
As of 9:00 AM on Sunday 21 Dec 2014 (Local Time) from ZYTX Reporting Station
Smoke Smoke  
Wind Chill: -10°   Ceiling: Unl
Heat Index:   Visibility: 1.8mi
Dew Point: -6°   Wind: 4mph
Humidity: 78%   Direction: 150°SSE
Pressure: 30.27"   Gusts: NA
Location:  40.97°N, 122.53°E
Report Text: ZYTX 210100Z 15002MPS 3000 FU NSC M18/M21 Q1025 NOSIG
Loading
Personal Weather Stations






























Interactive Weather Map New forecast layout! Learn more

10-Day Weather Forecast

Advertisements
Track Severe Weather on mobile